createdAt,value
2023-05-10T01:57:02.160Z,370.06
2023-05-10T03:05:10.826Z,312.00
2023-05-10T10:26:03.286Z,218.07
2023-05-10T10:26:41.514Z,190.80
2023-05-10T10:27:41.563Z,174.92
2023-05-10T10:28:41.766Z,165.22
2023-05-10T10:29:41.497Z,158.48
2023-05-10T10:30:41.574Z,152.40
2023-05-10T10:31:54.265Z,148.86
2023-05-10T10:32:55.219Z,145.23
2023-05-10T10:34:05.417Z,141.78
2023-05-10T10:34:51.585Z,139.88
2023-05-10T10:35:41.394Z,138.26
2023-05-10T10:36:45.850Z,136.00
2023-05-10T10:38:02.336Z,135.23
2023-05-10T10:38:41.477Z,133.82
2023-05-10T10:39:43.050Z,132.54
2023-05-10T10:40:42.511Z,131.71
2023-05-10T10:41:48.588Z,132.12
2023-05-10T10:43:09.454Z,130.68
2023-05-10T10:43:51.090Z,130.68
2023-05-10T10:44:49.294Z,130.27
2023-05-10T10:45:42.214Z,129.36
2023-05-10T10:51:43.251Z,150.47
2023-05-10T10:52:31.382Z,143.73
2023-05-10T10:53:22.022Z,138.71
2023-05-10T10:54:22.912Z,135.56
2023-05-10T10:55:26.272Z,133.61
2023-05-10T10:56:21.888Z,131.92
2023-05-10T11:00:45.024Z,151.57
2023-05-10T11:01:44.772Z,141.78
2023-05-10T11:02:46.262Z,138.14
2023-05-10T11:03:44.699Z,133.71
2023-05-10T11:05:13.394Z,131.29
2023-05-10T11:05:49.188Z,128.66
2023-05-10T19:06:05.019Z,132.97
2023-05-10T19:07:01.814Z,120.05
2023-05-10T19:08:01.607Z,111.92
2023-05-10T19:09:01.535Z,106.56
2023-05-10T19:10:04.429Z,103.33
2023-05-10T19:11:01.602Z,100.95
2023-05-10T19:12:01.552Z,99.39
2023-05-10T19:13:01.468Z,97.25
2023-05-10T19:14:01.520Z,95.96
2023-05-10T19:15:01.507Z,95.52
2023-05-10T19:16:04.619Z,94.82
2023-05-10T19:17:01.514Z,94.17
2023-05-10T19:18:01.497Z,95.54
2023-05-10T19:19:01.836Z,94.67
2023-05-10T19:20:02.238Z,94.78
2023-05-10T19:21:02.229Z,94.25
2023-05-10T19:22:01.682Z,94.67
2023-05-10T19:23:09.735Z,94.35
2023-05-10T19:24:02.527Z,94.25
2023-05-10T19:25:01.682Z,93.82
2023-05-10T19:26:01.310Z,94.03
2023-05-10T19:27:01.958Z,93.61
2023-05-10T19:28:01.294Z,93.93
2023-05-10T19:29:03.525Z,93.51
2023-05-10T19:30:01.375Z,93.51
2023-05-10T19:31:01.268Z,93.93
2023-05-10T19:32:01.354Z,93.51
2023-05-10T19:33:01.309Z,93.61
2023-05-10T19:34:01.265Z,93.40
2023-05-10T19:35:01.348Z,93.51
2023-05-10T19:36:01.219Z,93.30
2023-05-10T19:37:01.251Z,93.19
2023-05-10T19:38:01.701Z,93.72
2023-05-10T19:39:01.195Z,93.51
2023-05-10T19:40:01.169Z,93.61
2023-05-10T19:41:01.202Z,94.03
2023-05-10T19:42:01.260Z,94.14
2023-05-10T19:43:01.168Z,94.35
2023-05-10T19:44:01.132Z,95.10
2023-05-10T19:45:01.658Z,95.21
2023-05-10T19:46:01.194Z,94.33
2023-05-10T19:47:01.141Z,94.98
2023-05-10T19:48:01.097Z,95.36
2023-05-10T19:49:01.455Z,95.36
2023-05-10T19:50:01.063Z,95.85
2023-05-10T19:51:01.231Z,96.85
2023-05-10T19:52:01.029Z,97.76
2023-05-10T19:53:01.104Z,99.09
2023-05-10T19:54:01.013Z,99.63
2023-05-10T19:55:00.980Z,99.75
2023-05-10T19:56:00.990Z,100.83
2023-05-10T19:57:01.078Z,102.06
2023-05-10T19:58:00.991Z,102.44
2023-05-10T19:59:00.959Z,103.91
2023-05-10T20:00:01.263Z,105.75
2023-05-10T20:01:00.956Z,106.49
2023-05-10T20:02:00.906Z,108.57
2023-05-10T20:03:00.944Z,109.71
2023-05-10T20:04:00.918Z,110.81
2023-05-10T20:05:00.882Z,111.18
2023-05-10T20:06:00.867Z,112.45
2023-05-10T20:07:00.876Z,113.52
2023-05-10T20:08:00.863Z,113.91
2023-05-10T20:09:00.843Z,115.25
2023-05-10T20:16:16.859Z,150.47
2023-05-10T20:17:16.507Z,142.51
2023-05-10T20:18:16.499Z,138.37
2023-05-10T20:19:16.457Z,136.78
2023-05-10T20:20:16.765Z,135.34
2023-05-10T20:21:16.374Z,134.58
2023-05-10T20:22:16.367Z,134.25
2023-05-10T20:23:16.460Z,133.61
2023-05-10T20:24:16.405Z,133.07
2023-05-10T20:25:16.376Z,133.39
2023-05-10T20:26:16.310Z,132.54
2023-05-10T20:27:16.608Z,132.23
2023-05-10T20:28:16.339Z,133.18
2023-05-10T20:29:16.341Z,132.76
2023-05-10T20:30:16.526Z,133.39
2023-05-10T20:31:17.439Z,133.18
2023-05-10T20:32:16.337Z,133.18
2023-05-10T20:33:16.290Z,132.65
2023-05-10T20:34:16.264Z,133.18
